sensor_id;sensor_type;location;lat;lon;timestamp;temperature;humidity
24011;DHT22;12217;50.792;4.372;2023-09-12T00:00:43;24.30;99.90
24011;DHT22;12217;50.792;4.372;2023-09-12T00:03:09;24.20;99.90
24011;DHT22;12217;50.792;4.372;2023-09-12T00:05:34;24.20;99.90
24011;DHT22;12217;50.792;4.372;2023-09-12T00:08:00;24.30;99.90
24011;DHT22;12217;50.792;4.372;2023-09-12T00:10:25;24.40;99.90
24011;DHT22;12217;50.792;4.372;2023-09-12T00:12:51;24.30;99.90
24011;DHT22;12217;50.792;4.372;2023-09-12T00:15:16;24.30;99.90
24011;DHT22;12217;50.792;4.372;2023-09-12T00:17:45;24.30;99.90
24011;DHT22;12217;50.792;4.372;2023-09-12T00:20:10;24.40;99.90
24011;DHT22;12217;50.792;4.372;2023-09-12T00:22:36;24.30;99.90
24011;DHT22;12217;50.792;4.372;2023-09-12T00:25:02;24.30;99.90
24011;DHT22;12217;50.792;4.372;2023-09-12T00:27:28;24.40;99.90
24011;DHT22;12217;50.792;4.372;2023-09-12T00:29:54;24.40;99.90
24011;DHT22;12217;50.792;4.372;2023-09-12T00:32:19;24.40;99.90
24011;DHT22;12217;50.792;4.372;2023-09-12T00:34:45;24.40;99.90
24011;DHT22;12217;50.792;4.372;2023-09-12T00:37:10;24.30;99.90
24011;DHT22;12217;50.792;4.372;2023-09-12T00:39:37;24.30;99.90
24011;DHT22;12217;50.792;4.372;2023-09-12T00:42:03;24.50;99.90
24011;DHT22;12217;50.792;4.372;2023-09-12T00:44:28;24.50;99.90
24011;DHT22;12217;50.792;4.372;2023-09-12T00:46:54;24.40;99.90
24011;DHT22;12217;50.792;4.372;2023-09-12T00:49:21;24.20;99.90
24011;DHT22;12217;50.792;4.372;2023-09-12T00:51:49;24.10;99.90
24011;DHT22;12217;50.792;4.372;2023-09-12T00:54:15;24.10;99.90
24011;DHT22;12217;50.792;4.372;2023-09-12T00:56:41;24.10;99.90
24011;DHT22;12217;50.792;4.372;2023-09-12T00:59:07;24.00;99.90
24011;DHT22;12217;50.792;4.372;2023-09-12T01:01:34;23.90;99.90
24011;DHT22;12217;50.792;4.372;2023-09-12T01:04:00;24.00;99.90
24011;DHT22;12217;50.792;4.372;2023-09-12T01:06:29;24.00;99.90
24011;DHT22;12217;50.792;4.372;2023-09-12T01:08:56;24.00;99.90
24011;DHT22;12217;50.792;4.372;2023-09-12T01:11:22;23.90;99.90
24011;DHT22;12217;50.792;4.372;2023-09-12T01:13:49;24.00;99.90
24011;DHT22;12217;50.792;4.372;2023-09-12T01:16:15;24.00;99.90
24011;DHT22;12217;50.792;4.372;2023-09-12T01:18:40;23.90;99.90
24011;DHT22;12217;50.792;4.372;2023-09-12T01:29:21;23.60;99.90
24011;DHT22;12217;50.792;4.372;2023-09-12T01:31:47;23.50;99.90
24011;DHT22;12217;50.792;4.372;2023-09-12T01:34:14;23.60;99.90
24011;DHT22;12217;50.792;4.372;2023-09-12T01:36:40;23.60;99.90
24011;DHT22;12217;50.792;4.372;2023-09-12T01:39:06;23.70;99.90
24011;DHT22;12217;50.792;4.372;2023-09-12T01:41:35;23.70;99.90
24011;DHT22;12217;50.792;4.372;2023-09-12T01:44:04;23.60;99.90
24011;DHT22;12217;50.792;4.372;2023-09-12T01:46:31;23.60;99.90
24011;DHT22;12217;50.792;4.372;2023-09-12T01:49:00;23.60;99.90
24011;DHT22;12217;50.792;4.372;2023-09-12T01:51:28;23.60;99.90
24011;DHT22;12217;50.792;4.372;2023-09-12T01:53:54;23.50;99.90
24011;DHT22;12217;50.792;4.372;2023-09-12T01:56:21;23.50;99.90
24011;DHT22;12217;50.792;4.372;2023-09-12T01:58:47;23.70;99.90
24011;DHT22;12217;50.792;4.372;2023-09-12T02:01:12;23.70;99.90
24011;DHT22;12217;50.792;4.372;2023-09-12T02:03:39;23.70;99.90
24011;DHT22;12217;50.792;4.372;2023-09-12T02:06:05;23.50;99.90
24011;DHT22;12217;50.792;4.372;2023-09-12T02:08:30;23.50;99.90
24011;DHT22;12217;50.792;4.372;2023-09-12T02:10:56;23.50;99.90
24011;DHT22;12217;50.792;4.372;2023-09-12T02:13:21;23.40;99.90
24011;DHT22;12217;50.792;4.372;2023-09-12T02:15:47;23.40;99.90
24011;DHT22;12217;50.792;4.372;2023-09-12T02:18:13;23.40;99.90
24011;DHT22;12217;50.792;4.372;2023-09-12T02:20:39;23.40;99.90
24011;DHT22;12217;50.792;4.372;2023-09-12T02:23:05;23.50;99.90
24011;DHT22;12217;50.792;4.372;2023-09-12T02:25:31;23.50;99.90
24011;DHT22;12217;50.792;4.372;2023-09-12T02:27:56;23.50;99.90
24011;DHT22;12217;50.792;4.372;2023-09-12T02:30:22;23.50;99.90
24011;DHT22;12217;50.792;4.372;2023-09-12T02:32:47;23.40;99.90
24011;DHT22;12217;50.792;4.372;2023-09-12T02:35:13;23.30;99.90
24011;DHT22;12217;50.792;4.372;2023-09-12T02:37:39;23.20;99.90
24011;DHT22;12217;50.792;4.372;2023-09-12T02:40:05;22.80;99.90
24011;DHT22;12217;50.792;4.372;2023-09-12T02:42:31;22.80;99.90
24011;DHT22;12217;50.792;4.372;2023-09-12T02:44:57;22.80;99.90
24011;DHT22;12217;50.792;4.372;2023-09-12T02:47:22;22.70;99.90
24011;DHT22;12217;50.792;4.372;2023-09-12T02:49:48;22.60;99.90
24011;DHT22;12217;50.792;4.372;2023-09-12T02:52:13;22.50;99.90
24011;DHT22;12217;50.792;4.372;2023-09-12T02:54:39;22.50;99.90
24011;DHT22;12217;50.792;4.372;2023-09-12T02:57:05;22.70;99.90
24011;DHT22;12217;50.792;4.372;2023-09-12T02:59:31;22.70;99.90
24011;DHT22;12217;50.792;4.372;2023-09-12T03:01:57;22.80;99.90
24011;DHT22;12217;50.792;4.372;2023-09-12T03:04:25;22.70;99.90
24011;DHT22;12217;50.792;4.372;2023-09-12T03:06:50;22.80;99.90
24011;DHT22;12217;50.792;4.372;2023-09-12T03:09:17;22.70;99.90
24011;DHT22;12217;50.792;4.372;2023-09-12T03:11:43;22.60;99.90
24011;DHT22;12217;50.792;4.372;2023-09-12T03:14:09;22.50;99.90
24011;DHT22;12217;50.792;4.372;2023-09-12T03:16:35;22.60;99.90
24011;DHT22;12217;50.792;4.372;2023-09-12T03:19:01;22.60;99.90
24011;DHT22;12217;50.792;4.372;2023-09-12T03:21:28;22.60;99.90
24011;DHT22;12217;50.792;4.372;2023-09-12T03:23:54;22.60;99.90
24011;DHT22;12217;50.792;4.372;2023-09-12T03:26:20;22.60;99.90
24011;DHT22;12217;50.792;4.372;2023-09-12T03:28:45;22.70;99.90
24011;DHT22;12217;50.792;4.372;2023-09-12T03:31:13;22.80;99.90
24011;DHT22;12217;50.792;4.372;2023-09-12T03:33:40;23.00;99.90
24011;DHT22;12217;50.792;4.372;2023-09-12T03:36:06;23.00;99.90
24011;DHT22;12217;50.792;4.372;2023-09-12T03:38:33;23.10;99.90
24011;DHT22;12217;50.792;4.372;2023-09-12T03:40:59;23.20;99.90
24011;DHT22;12217;50.792;4.372;2023-09-12T03:43:24;23.20;99.90
24011;DHT22;12217;50.792;4.372;2023-09-12T03:45:50;23.20;99.90
24011;DHT22;12217;50.792;4.372;2023-09-12T03:48:16;23.10;99.90
24011;DHT22;12217;50.792;4.372;2023-09-12T03:50:41;23.10;99.90
24011;DHT22;12217;50.792;4.372;2023-09-12T03:53:08;23.20;99.90
24011;DHT22;12217;50.792;4.372;2023-09-12T03:55:33;23.20;99.90
24011;DHT22;12217;50.792;4.372;2023-09-12T03:57:59;23.30;99.90
24011;DHT22;12217;50.792;4.372;2023-09-12T04:00:25;23.40;99.90
24011;DHT22;12217;50.792;4.372;2023-09-12T04:02:50;23.30;99.90
24011;DHT22;12217;50.792;4.372;2023-09-12T04:05:16;23.30;99.90
24011;DHT22;12217;50.792;4.372;2023-09-12T04:07:41;23.30;99.90
24011;DHT22;12217;50.792;4.372;2023-09-12T04:10:07;23.20;99.90
24011;DHT22;12217;50.792;4.372;2023-09-12T04:12:33;23.20;99.90
24011;DHT22;12217;50.792;4.372;2023-09-12T04:14:59;23.30;99.90
24011;DHT22;12217;50.792;4.372;2023-09-12T04:17:24;23.30;99.90
24011;DHT22;12217;50.792;4.372;2023-09-12T04:19:50;23.30;99.90
24011;DHT22;12217;50.792;4.372;2023-09-12T04:22:16;23.30;99.90
24011;DHT22;12217;50.792;4.372;2023-09-12T04:24:41;23.30;99.90
24011;DHT22;12217;50.792;4.372;2023-09-12T04:27:07;23.30;99.90
24011;DHT22;12217;50.792;4.372;2023-09-12T04:29:33;23.40;99.90
24011;DHT22;12217;50.792;4.372;2023-09-12T04:32:01;23.40;99.90
24011;DHT22;12217;50.792;4.372;2023-09-12T04:34:27;23.30;99.90
24011;DHT22;12217;50.792;4.372;2023-09-12T04:36:53;23.30;99.90
24011;DHT22;12217;50.792;4.372;2023-09-12T04:39:19;23.30;99.90
24011;DHT22;12217;50.792;4.372;2023-09-12T04:41:44;23.10;99.90
24011;DHT22;12217;50.792;4.372;2023-09-12T04:44:11;23.10;99.90
24011;DHT22;12217;50.792;4.372;2023-09-12T04:46:37;23.10;99.90
24011;DHT22;12217;50.792;4.372;2023-09-12T04:49:03;23.10;99.90
24011;DHT22;12217;50.792;4.372;2023-09-12T04:51:28;23.10;99.90
24011;DHT22;12217;50.792;4.372;2023-09-12T04:53:54;23.10;99.90
24011;DHT22;12217;50.792;4.372;2023-09-12T04:56:20;23.10;99.90
24011;DHT22;12217;50.792;4.372;2023-09-12T04:58:46;23.10;99.90
24011;DHT22;12217;50.792;4.372;2023-09-12T05:01:11;23.10;99.90
24011;DHT22;12217;50.792;4.372;2023-09-12T05:03:37;23.10;99.90
24011;DHT22;12217;50.792;4.372;2023-09-12T05:06:02;23.00;99.90
24011;DHT22;12217;50.792;4.372;2023-09-12T05:08:29;23.00;99.90
24011;DHT22;12217;50.792;4.372;2023-09-12T05:10:55;22.90;99.90
24011;DHT22;12217;50.792;4.372;2023-09-12T05:13:20;22.90;99.90
24011;DHT22;12217;50.792;4.372;2023-09-12T05:15:47;23.00;99.90
24011;DHT22;12217;50.792;4.372;2023-09-12T05:18:12;23.00;99.90
24011;DHT22;12217;50.792;4.372;2023-09-12T05:20:38;22.90;99.90
24011;DHT22;12217;50.792;4.372;2023-09-12T05:23:04;22.80;99.90
24011;DHT22;12217;50.792;4.372;2023-09-12T05:25:29;22.80;99.90
24011;DHT22;12217;50.792;4.372;2023-09-12T05:27:55;22.80;99.90
24011;DHT22;12217;50.792;4.372;2023-09-12T05:30:21;22.80;99.90
24011;DHT22;12217;50.792;4.372;2023-09-12T05:32:47;22.70;99.90
24011;DHT22;12217;50.792;4.372;2023-09-12T05:35:13;22.80;99.90
24011;DHT22;12217;50.792;4.372;2023-09-12T05:37:39;22.80;99.90
24011;DHT22;12217;50.792;4.372;2023-09-12T05:40:05;22.90;99.90
24011;DHT22;12217;50.792;4.372;2023-09-12T05:42:31;22.80;99.90
24011;DHT22;12217;50.792;4.372;2023-09-12T05:44:57;22.80;99.90
24011;DHT22;12217;50.792;4.372;2023-09-12T05:47:23;22.80;99.90
24011;DHT22;12217;50.792;4.372;2023-09-12T05:49:50;22.80;99.90
24011;DHT22;12217;50.792;4.372;2023-09-12T05:52:15;22.90;99.90
24011;DHT22;12217;50.792;4.372;2023-09-12T05:54:41;22.80;99.90
24011;DHT22;12217;50.792;4.372;2023-09-12T05:57:08;22.80;99.90
24011;DHT22;12217;50.792;4.372;2023-09-12T05:59:38;22.80;99.90
24011;DHT22;12217;50.792;4.372;2023-09-12T06:02:05;22.80;99.90
24011;DHT22;12217;50.792;4.372;2023-09-12T06:04:32;22.80;99.90
24011;DHT22;12217;50.792;4.372;2023-09-12T06:06:58;22.90;99.90
24011;DHT22;12217;50.792;4.372;2023-09-12T06:09:23;22.90;99.90
24011;DHT22;12217;50.792;4.372;2023-09-12T06:11:50;23.00;99.90
24011;DHT22;12217;50.792;4.372;2023-09-12T06:14:16;23.00;99.90
24011;DHT22;12217;50.792;4.372;2023-09-12T06:16:41;22.90;99.90
24011;DHT22;12217;50.792;4.372;2023-09-12T06:19:07;23.00;99.90
24011;DHT22;12217;50.792;4.372;2023-09-12T06:21:33;23.00;99.90
24011;DHT22;12217;50.792;4.372;2023-09-12T06:26:35;23.00;99.90
24011;DHT22;12217;50.792;4.372;2023-09-12T06:29:01;22.90;99.90
24011;DHT22;12217;50.792;4.372;2023-09-12T06:31:28;22.50;99.90
24011;DHT22;12217;50.792;4.372;2023-09-12T06:33:53;22.50;99.90
24011;DHT22;12217;50.792;4.372;2023-09-12T06:36:19;22.60;99.90
24011;DHT22;12217;50.792;4.372;2023-09-12T06:38:44;22.60;99.90
24011;DHT22;12217;50.792;4.372;2023-09-12T06:41:10;22.60;99.90
24011;DHT22;12217;50.792;4.372;2023-09-12T06:43:35;22.70;99.90
24011;DHT22;12217;50.792;4.372;2023-09-12T06:46:01;22.80;99.90
24011;DHT22;12217;50.792;4.372;2023-09-12T06:48:27;23.00;99.90
24011;DHT22;12217;50.792;4.372;2023-09-12T06:50:54;23.10;99.90
24011;DHT22;12217;50.792;4.372;2023-09-12T06:53:19;23.10;99.90
24011;DHT22;12217;50.792;4.372;2023-09-12T06:55:45;23.10;99.90
24011;DHT22;12217;50.792;4.372;2023-09-12T06:58:12;23.10;99.90
24011;DHT22;12217;50.792;4.372;2023-09-12T07:00:38;23.20;99.90
24011;DHT22;12217;50.792;4.372;2023-09-12T07:03:03;23.20;99.90
24011;DHT22;12217;50.792;4.372;2023-09-12T07:05:29;23.20;99.90
24011;DHT22;12217;50.792;4.372;2023-09-12T07:07:55;23.20;99.90
24011;DHT22;12217;50.792;4.372;2023-09-12T07:10:20;23.10;99.90
24011;DHT22;12217;50.792;4.372;2023-09-12T07:12:46;23.00;99.90
24011;DHT22;12217;50.792;4.372;2023-09-12T07:15:12;23.00;99.90
24011;DHT22;12217;50.792;4.372;2023-09-12T07:17:38;23.10;99.90
24011;DHT22;12217;50.792;4.372;2023-09-12T07:20:05;23.30;99.90
24011;DHT22;12217;50.792;4.372;2023-09-12T07:22:37;23.50;99.90
24011;DHT22;12217;50.792;4.372;2023-09-12T07:25:03;23.70;99.90
24011;DHT22;12217;50.792;4.372;2023-09-12T07:27:29;23.80;99.90
24011;DHT22;12217;50.792;4.372;2023-09-12T07:29:55;23.70;99.90
24011;DHT22;12217;50.792;4.372;2023-09-12T07:32:20;23.70;99.90
24011;DHT22;12217;50.792;4.372;2023-09-12T07:34:47;23.70;99.90
24011;DHT22;12217;50.792;4.372;2023-09-12T07:37:14;23.50;99.90
24011;DHT22;12217;50.792;4.372;2023-09-12T07:39:39;23.40;99.90
24011;DHT22;12217;50.792;4.372;2023-09-12T07:42:05;23.30;99.90
24011;DHT22;12217;50.792;4.372;2023-09-12T07:44:31;23.40;99.90
24011;DHT22;12217;50.792;4.372;2023-09-12T07:46:56;23.50;99.90
24011;DHT22;12217;50.792;4.372;2023-09-12T07:49:22;23.40;99.90
24011;DHT22;12217;50.792;4.372;2023-09-12T07:51:50;23.60;99.90
24011;DHT22;12217;50.792;4.372;2023-09-12T07:54:15;23.70;99.90
24011;DHT22;12217;50.792;4.372;2023-09-12T07:56:43;23.90;99.90
24011;DHT22;12217;50.792;4.372;2023-09-12T07:59:08;24.00;99.90
24011;DHT22;12217;50.792;4.372;2023-09-12T08:01:35;24.10;99.90
24011;DHT22;12217;50.792;4.372;2023-09-12T08:04:04;24.20;99.90
24011;DHT22;12217;50.792;4.372;2023-09-12T08:06:29;24.40;99.90
24011;DHT22;12217;50.792;4.372;2023-09-12T08:08:55;24.60;99.90
24011;DHT22;12217;50.792;4.372;2023-09-12T08:11:21;24.70;99.90
24011;DHT22;12217;50.792;4.372;2023-09-12T08:13:49;24.80;99.90
24011;DHT22;12217;50.792;4.372;2023-09-12T08:16:15;25.00;99.90
24011;DHT22;12217;50.792;4.372;2023-09-12T08:18:40;25.10;99.90
24011;DHT22;12217;50.792;4.372;2023-09-12T08:21:06;24.90;99.90
24011;DHT22;12217;50.792;4.372;2023-09-12T08:23:31;24.90;99.90
24011;DHT22;12217;50.792;4.372;2023-09-12T08:25:57;25.00;99.90
24011;DHT22;12217;50.792;4.372;2023-09-12T08:28:23;24.90;99.90
24011;DHT22;12217;50.792;4.372;2023-09-12T08:30:48;24.80;99.90
24011;DHT22;12217;50.792;4.372;2023-09-12T08:33:14;24.90;99.90
24011;DHT22;12217;50.792;4.372;2023-09-12T08:35:40;25.00;99.90
24011;DHT22;12217;50.792;4.372;2023-09-12T08:38:05;25.10;99.90
24011;DHT22;12217;50.792;4.372;2023-09-12T08:40:33;24.90;99.90
24011;DHT22;12217;50.792;4.372;2023-09-12T08:43:01;24.90;99.90
24011;DHT22;12217;50.792;4.372;2023-09-12T08:45:28;25.10;99.90
24011;DHT22;12217;50.792;4.372;2023-09-12T08:47:56;24.80;99.90
24011;DHT22;12217;50.792;4.372;2023-09-12T08:50:22;24.90;99.90
24011;DHT22;12217;50.792;4.372;2023-09-12T08:52:49;24.90;99.90
24011;DHT22;12217;50.792;4.372;2023-09-12T08:55:15;25.10;99.90
24011;DHT22;12217;50.792;4.372;2023-09-12T08:57:42;25.20;99.90
24011;DHT22;12217;50.792;4.372;2023-09-12T09:00:09;25.50;99.90
24011;DHT22;12217;50.792;4.372;2023-09-12T09:02:39;25.70;99.90
24011;DHT22;12217;50.792;4.372;2023-09-12T09:05:09;26.00;99.90
24011;DHT22;12217;50.792;4.372;2023-09-12T09:07:39;26.30;99.90
24011;DHT22;12217;50.792;4.372;2023-09-12T09:10:07;26.00;99.90
24011;DHT22;12217;50.792;4.372;2023-09-12T09:12:34;26.20;99.90
24011;DHT22;12217;50.792;4.372;2023-09-12T09:15:26;26.30;99.90
24011;DHT22;12217;50.792;4.372;2023-09-12T09:17:54;26.50;99.90
24011;DHT22;12217;50.792;4.372;2023-09-12T09:20:34;26.60;99.90
24011;DHT22;12217;50.792;4.372;2023-09-12T09:23:05;26.50;99.90
24011;DHT22;12217;50.792;4.372;2023-09-12T09:25:35;26.60;99.90
24011;DHT22;12217;50.792;4.372;2023-09-12T09:28:20;26.70;99.90
24011;DHT22;12217;50.792;4.372;2023-09-12T09:30:47;26.80;99.90
24011;DHT22;12217;50.792;4.372;2023-09-12T09:33:14;27.00;99.90
24011;DHT22;12217;50.792;4.372;2023-09-12T09:35:43;26.90;99.90
24011;DHT22;12217;50.792;4.372;2023-09-12T09:38:11;27.00;99.90
24011;DHT22;12217;50.792;4.372;2023-09-12T09:40:42;27.00;99.90
24011;DHT22;12217;50.792;4.372;2023-09-12T09:43:08;27.30;99.90
24011;DHT22;12217;50.792;4.372;2023-09-12T09:45:43;27.40;99.90
24011;DHT22;12217;50.792;4.372;2023-09-12T09:48:10;27.60;99.90
24011;DHT22;12217;50.792;4.372;2023-09-12T09:50:36;27.40;99.90
24011;DHT22;12217;50.792;4.372;2023-09-12T09:53:04;27.30;99.90
24011;DHT22;12217;50.792;4.372;2023-09-12T09:55:33;27.20;99.90
24011;DHT22;12217;50.792;4.372;2023-09-12T09:57:59;27.20;99.90
24011;DHT22;12217;50.792;4.372;2023-09-12T10:00:25;27.20;99.90
24011;DHT22;12217;50.792;4.372;2023-09-12T10:02:54;27.10;99.90
24011;DHT22;12217;50.792;4.372;2023-09-12T10:05:21;27.30;99.90
24011;DHT22;12217;50.792;4.372;2023-09-12T10:07:49;27.50;99.90
24011;DHT22;12217;50.792;4.372;2023-09-12T10:10:18;27.60;99.90
24011;DHT22;12217;50.792;4.372;2023-09-12T10:12:57;27.90;99.90
24011;DHT22;12217;50.792;4.372;2023-09-12T10:15:28;27.70;99.90
24011;DHT22;12217;50.792;4.372;2023-09-12T10:17:59;27.40;99.90
24011;DHT22;12217;50.792;4.372;2023-09-12T10:20:32;27.40;99.90
24011;DHT22;12217;50.792;4.372;2023-09-12T10:23:23;27.30;99.90
24011;DHT22;12217;50.792;4.372;2023-09-12T10:25:53;27.10;99.90
24011;DHT22;12217;50.792;4.372;2023-09-12T10:28:20;27.50;99.90
24011;DHT22;12217;50.792;4.372;2023-09-12T10:30:46;27.80;99.90
24011;DHT22;12217;50.792;4.372;2023-09-12T10:33:13;27.60;99.90
24011;DHT22;12217;50.792;4.372;2023-09-12T10:35:40;27.70;99.90
24011;DHT22;12217;50.792;4.372;2023-09-12T10:38:07;27.60;99.90
24011;DHT22;12217;50.792;4.372;2023-09-12T10:40:36;27.50;99.90
24011;DHT22;12217;50.792;4.372;2023-09-12T10:43:03;27.50;99.90
24011;DHT22;12217;50.792;4.372;2023-09-12T10:45:31;27.80;99.90
24011;DHT22;12217;50.792;4.372;2023-09-12T10:47:58;28.20;99.90
24011;DHT22;12217;50.792;4.372;2023-09-12T10:50:24;28.30;99.90
24011;DHT22;12217;50.792;4.372;2023-09-12T10:52:50;28.40;99.90
24011;DHT22;12217;50.792;4.372;2023-09-12T10:55:17;28.50;99.90
24011;DHT22;12217;50.792;4.372;2023-09-12T10:58:09;28.30;99.90
24011;DHT22;12217;50.792;4.372;2023-09-12T11:00:36;28.70;99.90
24011;DHT22;12217;50.792;4.372;2023-09-12T11:05:54;29.40;99.90
24011;DHT22;12217;50.792;4.372;2023-09-12T11:08:20;29.40;99.90
24011;DHT22;12217;50.792;4.372;2023-09-12T11:11:21;29.60;99.90
24011;DHT22;12217;50.792;4.372;2023-09-12T11:13:46;29.80;99.90
24011;DHT22;12217;50.792;4.372;2023-09-12T11:16:13;29.90;99.90
24011;DHT22;12217;50.792;4.372;2023-09-12T11:21:48;29.50;99.90
24011;DHT22;12217;50.792;4.372;2023-09-12T11:24:15;29.40;99.90
24011;DHT22;12217;50.792;4.372;2023-09-12T11:27:03;29.30;99.90
24011;DHT22;12217;50.792;4.372;2023-09-12T11:29:38;29.50;99.90
24011;DHT22;12217;50.792;4.372;2023-09-12T11:32:05;29.50;99.90
24011;DHT22;12217;50.792;4.372;2023-09-12T11:34:37;29.60;99.90
24011;DHT22;12217;50.792;4.372;2023-09-12T11:37:04;29.50;99.90
24011;DHT22;12217;50.792;4.372;2023-09-12T11:39:35;29.80;99.90
24011;DHT22;12217;50.792;4.372;2023-09-12T11:42:02;29.90;99.90
24011;DHT22;12217;50.792;4.372;2023-09-12T11:44:29;30.20;99.90
24011;DHT22;12217;50.792;4.372;2023-09-12T11:46:58;30.40;99.90
24011;DHT22;12217;50.792;4.372;2023-09-12T11:49:38;30.60;99.90
24011;DHT22;12217;50.792;4.372;2023-09-12T11:52:11;30.70;99.90
24011;DHT22;12217;50.792;4.372;2023-09-12T11:54:39;30.70;99.90
24011;DHT22;12217;50.792;4.372;2023-09-12T11:57:07;30.90;99.90
24011;DHT22;12217;50.792;4.372;2023-09-12T11:59:37;31.20;99.90
24011;DHT22;12217;50.792;4.372;2023-09-12T12:02:07;31.30;99.90
24011;DHT22;12217;50.792;4.372;2023-09-12T12:04:33;31.40;99.90
24011;DHT22;12217;50.792;4.372;2023-09-12T12:07:00;31.70;99.90
24011;DHT22;12217;50.792;4.372;2023-09-12T12:09:33;31.90;99.90
24011;DHT22;12217;50.792;4.372;2023-09-12T12:12:13;31.90;99.90
24011;DHT22;12217;50.792;4.372;2023-09-12T12:14:40;31.80;99.90
24011;DHT22;12217;50.792;4.372;2023-09-12T12:17:10;31.80;99.90
24011;DHT22;12217;50.792;4.372;2023-09-12T12:19:36;31.70;99.90
24011;DHT22;12217;50.792;4.372;2023-09-12T12:22:03;31.90;99.90
24011;DHT22;12217;50.792;4.372;2023-09-12T12:24:37;32.20;99.90
24011;DHT22;12217;50.792;4.372;2023-09-12T12:27:04;32.60;99.90
24011;DHT22;12217;50.792;4.372;2023-09-12T12:29:30;32.40;99.90
24011;DHT22;12217;50.792;4.372;2023-09-12T12:32:02;32.20;99.90
24011;DHT22;12217;50.792;4.372;2023-09-12T12:34:30;31.70;99.90
24011;DHT22;12217;50.792;4.372;2023-09-12T12:36:56;31.60;99.90
24011;DHT22;12217;50.792;4.372;2023-09-12T12:39:22;31.50;99.90
24011;DHT22;12217;50.792;4.372;2023-09-12T12:41:48;31.50;99.90
24011;DHT22;12217;50.792;4.372;2023-09-12T12:44:14;31.20;99.90
24011;DHT22;12217;50.792;4.372;2023-09-12T12:46:54;31.00;99.90
24011;DHT22;12217;50.792;4.372;2023-09-12T12:49:20;30.80;99.90
24011;DHT22;12217;50.792;4.372;2023-09-12T12:51:47;30.80;99.90
24011;DHT22;12217;50.792;4.372;2023-09-12T12:54:14;30.60;99.90
24011;DHT22;12217;50.792;4.372;2023-09-12T12:56:40;30.40;99.90
24011;DHT22;12217;50.792;4.372;2023-09-12T12:59:07;30.10;99.90
24011;DHT22;12217;50.792;4.372;2023-09-12T13:01:38;30.00;99.90
24011;DHT22;12217;50.792;4.372;2023-09-12T13:04:07;29.70;99.90
24011;DHT22;12217;50.792;4.372;2023-09-12T13:06:33;29.90;99.90
24011;DHT22;12217;50.792;4.372;2023-09-12T13:09:02;29.80;99.90
24011;DHT22;12217;50.792;4.372;2023-09-12T13:11:31;29.60;99.90
24011;DHT22;12217;50.792;4.372;2023-09-12T13:13:58;29.40;99.90
24011;DHT22;12217;50.792;4.372;2023-09-12T13:16:24;29.10;99.90
24011;DHT22;12217;50.792;4.372;2023-09-12T13:18:49;29.10;99.90
24011;DHT22;12217;50.792;4.372;2023-09-12T13:21:15;29.00;99.90
24011;DHT22;12217;50.792;4.372;2023-09-12T13:23:41;28.80;99.90
24011;DHT22;12217;50.792;4.372;2023-09-12T13:26:10;28.40;99.90
24011;DHT22;12217;50.792;4.372;2023-09-12T13:28:36;28.50;99.90
24011;DHT22;12217;50.792;4.372;2023-09-12T13:31:02;28.60;99.90
24011;DHT22;12217;50.792;4.372;2023-09-12T13:33:28;28.20;99.90
24011;DHT22;12217;50.792;4.372;2023-09-12T13:35:54;28.00;99.90
24011;DHT22;12217;50.792;4.372;2023-09-12T13:38:20;27.80;99.90
24011;DHT22;12217;50.792;4.372;2023-09-12T13:40:47;27.80;99.90
24011;DHT22;12217;50.792;4.372;2023-09-12T13:43:13;27.80;99.90
24011;DHT22;12217;50.792;4.372;2023-09-12T13:45:39;27.80;99.90
24011;DHT22;12217;50.792;4.372;2023-09-12T13:48:05;28.10;99.90
24011;DHT22;12217;50.792;4.372;2023-09-12T13:50:31;28.20;99.90
24011;DHT22;12217;50.792;4.372;2023-09-12T13:52:58;28.40;99.90
24011;DHT22;12217;50.792;4.372;2023-09-12T13:55:34;28.40;99.90
24011;DHT22;12217;50.792;4.372;2023-09-12T13:58:04;28.20;99.90
24011;DHT22;12217;50.792;4.372;2023-09-12T14:00:31;27.90;99.90
24011;DHT22;12217;50.792;4.372;2023-09-12T14:02:57;27.70;99.90
24011;DHT22;12217;50.792;4.372;2023-09-12T14:05:23;27.70;99.90
24011;DHT22;12217;50.792;4.372;2023-09-12T14:07:48;27.70;99.90
24011;DHT22;12217;50.792;4.372;2023-09-12T14:10:15;28.00;99.90
24011;DHT22;12217;50.792;4.372;2023-09-12T14:12:40;27.80;99.90
24011;DHT22;12217;50.792;4.372;2023-09-12T14:15:07;27.50;99.90
24011;DHT22;12217;50.792;4.372;2023-09-12T14:17:33;27.10;99.90
24011;DHT22;12217;50.792;4.372;2023-09-12T14:19:58;27.30;99.90
24011;DHT22;12217;50.792;4.372;2023-09-12T14:22:24;27.40;99.90
24011;DHT22;12217;50.792;4.372;2023-09-12T14:24:49;27.40;99.90
24011;DHT22;12217;50.792;4.372;2023-09-12T14:27:15;27.30;99.90
24011;DHT22;12217;50.792;4.372;2023-09-12T14:29:41;27.50;99.90
24011;DHT22;12217;50.792;4.372;2023-09-12T14:32:11;27.60;99.90
24011;DHT22;12217;50.792;4.372;2023-09-12T14:34:37;27.70;99.90
24011;DHT22;12217;50.792;4.372;2023-09-12T14:37:02;27.70;99.90
24011;DHT22;12217;50.792;4.372;2023-09-12T14:39:28;27.50;99.90
24011;DHT22;12217;50.792;4.372;2023-09-12T14:41:54;27.30;99.90
24011;DHT22;12217;50.792;4.372;2023-09-12T14:44:23;27.10;99.90
24011;DHT22;12217;50.792;4.372;2023-09-12T14:46:49;27.20;99.90
24011;DHT22;12217;50.792;4.372;2023-09-12T14:49:15;27.10;99.90
24011;DHT22;12217;50.792;4.372;2023-09-12T14:51:41;27.10;99.90
24011;DHT22;12217;50.792;4.372;2023-09-12T14:54:07;27.20;99.90
24011;DHT22;12217;50.792;4.372;2023-09-12T14:56:33;27.30;99.90
24011;DHT22;12217;50.792;4.372;2023-09-12T14:59:00;27.50;99.90
24011;DHT22;12217;50.792;4.372;2023-09-12T15:01:26;27.40;99.90
24011;DHT22;12217;50.792;4.372;2023-09-12T15:03:52;27.30;99.90
24011;DHT22;12217;50.792;4.372;2023-09-12T15:06:18;27.30;99.90
24011;DHT22;12217;50.792;4.372;2023-09-12T15:08:44;27.10;99.90
24011;DHT22;12217;50.792;4.372;2023-09-12T15:11:09;27.00;99.90
24011;DHT22;12217;50.792;4.372;2023-09-12T15:13:36;27.00;99.90
24011;DHT22;12217;50.792;4.372;2023-09-12T15:16:02;26.90;99.90
24011;DHT22;12217;50.792;4.372;2023-09-12T15:18:28;26.90;99.90
24011;DHT22;12217;50.792;4.372;2023-09-12T15:20:54;26.80;99.90
24011;DHT22;12217;50.792;4.372;2023-09-12T15:23:19;26.60;99.90
24011;DHT22;12217;50.792;4.372;2023-09-12T15:25:48;26.60;99.90
24011;DHT22;12217;50.792;4.372;2023-09-12T15:28:14;26.80;99.90
24011;DHT22;12217;50.792;4.372;2023-09-12T15:30:40;26.80;99.90
24011;DHT22;12217;50.792;4.372;2023-09-12T15:33:05;26.90;99.90
24011;DHT22;12217;50.792;4.372;2023-09-12T15:35:31;26.70;99.90
24011;DHT22;12217;50.792;4.372;2023-09-12T15:37:56;26.70;99.90
24011;DHT22;12217;50.792;4.372;2023-09-12T15:40:22;26.70;99.90
24011;DHT22;12217;50.792;4.372;2023-09-12T15:42:47;26.60;99.90
24011;DHT22;12217;50.792;4.372;2023-09-12T15:45:13;26.50;99.90